EEKE

Kuressaare Airport

Kuressaare, Estonia

EEKE 110750Z 14016KT 9999 FEW019 SCT024 BKN028 01/M01 Q0996 R17/0///95

Observed Flight Rules
Dec-11 @ 07:50 UTC (2 hours ago) Marginal Visual Flight Rules
Wind Visibility Clouds
140° at 16 knots 10,000+ meters
  • Few at 1,900' AGL
  • Scattered at 2,400' AGL
  • Broken at 2,800' AGL
Temperatures Readings
Current 1°C / 34°F
Dewpoint -1°C / 30°F
Humidity 87%
Altimeter 29.41" Hg
Pressure 996 hPa
Elevation 4
Observed Flight Rules
Dec-11 @ 07:50 UTC
(2 hours ago)
MVFR
Wind Visibility
140° at 16 knots 10,000+ meters
Clouds
  • Few at 1,900' AGL
  • Scattered at 2,400' AGL
  • Broken at 2,800' AGL
Temperature Dewpoint
1°C / 34°F -1°C / 30°F
Humidity Altimeter Pressure
87% 29.41" Hg 996 hPa